11°C
Gosport, Hampshire, United Kingdom
Language:  English
Updated26/04/2018 19:40:00 
 

Nearby METAR Reports

 

EGHI - Southampton Wx Centre, United Kingdom
Distance from station: NW 15mi, 24km
Updated: 26-Apr-2018 19:20:00
Nearby showers, Partly cloudy
Nearby showers, Partly cloudy
 Wind from varies
Wind: varies 1 mph , 2 km/h
Temperature: 8°C
Dew Point: 7°C
Humidity: 93%
Barometer: 1016 hPa
Summary: Nearby Showers
Clouds: Partly cloudy
Visibility: 6 miles , 10 km
Cloud details: Few Clouds 457 m
Partly cloudy 914 m
2018/04/26 18:20 EGHI 261820Z VRB01KT 9999 VCSH FEW015 SCT030 08/07 Q1016
EGHH - Bournemouth Airport, United Kingdom
Distance from station: W 30mi, 49km
Updated: 26-Apr-2018 19:20:00
Few Clouds
Few Clouds
 Wind from WSW
Wind: WSW 14 mph , 22 km/h
Temperature: 11°C
Dew Point: 6°C
Humidity: 72%
Barometer: 1016 hPa
Clouds: Few Clouds
Visibility: 6 miles , 10 km
Cloud details: Few Clouds 1494 m
2018/04/26 18:20 EGHH 261820Z 25012KT 9999 FEW049 11/06 Q1016
EGVP - Middle Wallop Airfield, United Kingdom
Distance from station: NW 31mi, 49km
Updated: 26-Apr-2018 18:50:00
Mostly cloudy
Mostly cloudy
 Wind from SW
Wind: SW 7 mph , 11 km/h
Temperature: 11°C
Dew Point: 6°C
Humidity: 72%
Barometer: 1015 hPa
Clouds: Mostly cloudy
Visibility: 6 miles , 10 km
Cloud details: Few Clouds 1219 m
Mostly cloudy 2134 m
2018/04/26 17:50 EGVP 261750Z 22006KT 9999 FEW040 BKN070 11/06 Q1015 BLU NOSIG
 
EGVO - RAF Odiham, United Kingdom
Distance from station: NNE 32mi, 52km
Updated: 26-Apr-2018 18:50:00
Mostly cloudy
Mostly cloudy
 Wind from SW
Wind: SW 14 mph , 22 km/h
Temperature: 11°C
Dew Point: 5°C
Humidity: 67%
Barometer: 1015 hPa
Clouds: Mostly cloudy
Visibility: 6 miles , 10 km
Cloud details: Few Clouds 914 m
Mostly cloudy 6096 m
2018/04/26 17:50 EGVO 261750Z 22012KT 9999 FEW030 BKN200 11/05 Q1015 BLU NOSIG
EGKA - Shoreham Airport, United Kingdom
Distance from station: E 37mi, 59km
Updated: 26-Apr-2018 19:20:00
Few Clouds
Few Clouds
 Wind from WSW
Wind: WSW 18 mph , 30 km/h
Temperature: 10°C
Wind Chill: 7°C
Dew Point: 7°C
Humidity: 82%
Barometer: 1016 hPa
Clouds: Few Clouds
Visibility: 6 miles , 10 km
Cloud details: Few Clouds 610 m
2018/04/26 18:20 EGKA 261820Z 24016KT 9999 FEW020 10/07 Q1016
EGDM - Boscombe Down, United Kingdom
Distance from station: NW 38mi, 61km
Updated: 26-Apr-2018 18:50:00
Partly cloudy
Partly cloudy
 Wind from SW
Wind: SW 13 mph , 20 km/h
Temperature: 11°C
Dew Point: 6°C
Humidity: 72%
Barometer: 1015 hPa
Clouds: Partly cloudy
Visibility: 6 miles , 10 km
Cloud details: Few Clouds 1189 m
Partly cloudy 1524 m
2018/04/26 17:50 EGDM 261750Z AUTO 23011KT 9999 FEW039/// SCT050/// 11/06 Q1015
 
EGLF - Farnborough, United Kingdom
Distance from station: NNE 38mi, 61km
Updated: 26-Apr-2018 18:50:00
Partly cloudy
Partly cloudy
 Wind from SSW
Wind: SSW 13 mph , 20 km/h
Temperature: 11°C
Dew Point: 6°C
Humidity: 72%
Barometer: 1016 hPa
Clouds: Partly cloudy
Visibility: 6 miles , 10 km
Cloud details: Partly cloudy 1372 m
2018/04/26 17:50 EGLF 261750Z 21011KT 9999 SCT045 11/06 Q1016
EGKK - Gatwick Airport, United Kingdom
Distance from station: ENE 49mi, 78km
Updated: 26-Apr-2018 19:20:00
Few Clouds
Few Clouds
 Wind from SW
Wind: SW 13 mph , 20 km/h
Temperature: 10°C
Wind Chill: 7°C
Dew Point: 5°C
Humidity: 71%
Barometer: 1016 hPa
Clouds: Few Clouds
Visibility: 6 miles , 10 km
Cloud details: Few Clouds 1219 m
2018/04/26 18:20 EGKK 261820Z 23011KT 9999 FEW040 10/05 Q1016
EGLL - Heathrow Airport, United Kingdom
Distance from station: NNE 57mi, 91km
Updated: 26-Apr-2018 19:20:00
Clear
Clear
 Wind from W
Wind: W 13 mph , 20 km/h
Temperature: 12°C
Dew Point: 2°C
Humidity: 51%
Barometer: 1015 hPa
Clouds: Clear
Visibility: 6 miles , 10 km
2018/04/26 18:20 EGLL 261820Z AUTO 26011KT 9999 NCD 12/02 Q1015 NOSIG
 
EGUB - RAF Benson, United Kingdom
Distance from station: N 58mi, 93km
Updated: 26-Apr-2018 18:50:00
Clear
Clear
 Wind from WSW
Wind: WSW 12 mph , 19 km/h
Temperature: 12°C
Dew Point: 0°C
Humidity: 44%
Barometer: 1015 hPa
Summary: Clear
Visibility: greater than 7 miles , 10 km
2018/04/26 17:50 EGUB 261750Z 24010KT CAVOK 12/M00 Q1015 BLU NOSIG
EGWU - RAF Northolt, United Kingdom
Distance from station: NNE 62mi, 99km
Updated: 26-Apr-2018 18:50:00
Clear
Clear
 Wind from W
Wind: W 17 mph , 28 km/h
Temperature: 13°C
Dew Point: 0°C
Humidity: 41%
Barometer: 1015 hPa
Summary: Clear
Visibility: greater than 7 miles , 10 km
2018/04/26 17:50 EGWU 261750Z 26015KT CAVOK 13/M00 Q1015 NOSIG
EGKB - Biggin Hill Airport, United Kingdom
Distance from station: NE 62mi, 100km
Updated: 26-Apr-2018 19:20:00
Few Clouds
Few Clouds
 Wind from SSW
Wind: SSW 12 mph , 19 km/h
Temperature: 10°C
Wind Chill: 7°C
Dew Point: 5°C
Humidity: 71%
Barometer: 1015 hPa
Clouds: Few Clouds
Visibility: 6 miles , 10 km
Cloud details: Few Clouds 762 m
2018/04/26 18:20 EGKB 261820Z 21010KT 9999 FEW025 10/05 Q1015
 
EGDY - RNAS Yeovilton, United Kingdom
Distance from station: WNW 66mi, 107km
Updated: 26-Apr-2018 18:50:00
Partly cloudy
Partly cloudy
 Wind from NW
Wind: NW 7 mph , 11 km/h
Temperature: 11°C
Dew Point: 6°C
Humidity: 72%
Barometer: 1016 hPa
Clouds: Partly cloudy
Visibility: 6 miles , 10 km
Cloud details: Few Clouds 914 m
Partly cloudy 1524 m
2018/04/26 17:50 EGDY 261750Z 32006KT 9999 FEW030 SCT050 11/06 Q1016 BLU NOSIG
EGUO - Colerne Airfield, United Kingdom
Distance from station: NW 67mi, 108km
Updated: 21-Mar-2018 08:50:00
NOT Current
Clear
Clear
 Wind from W
Wind: W 6 mph , 9 km/h
Temperature: 5°C
Wind Chill: 3°C
Dew Point: 1°C
Humidity: 76%
Barometer: 1032 hPa
Clouds: Clear
Visibility: 6 miles , 10 km
2018/03/21 08:50 EGUO 210850Z 27005KT 9999 NCD 05/01 Q1032 BLU NOSIG
EGVA - RAF Fairford, United Kingdom
Distance from station: NNW 67mi, 108km
Updated: 26-Apr-2018 19:31:00

 Wind from WSW
Wind: WSW 12 mph , 19 km/h
Visibility: 4 miles , 6 km
2018/04/26 18:31 EGVA 261831Z AUTO 25010KT 6000 M CLR 10/01 A2996 RMK AO2 SLPNO $
 
EGVN - RAF Brize Norton, United Kingdom
Distance from station: NNW 71mi, 114km
Updated: 26-Apr-2018 18:50:00
Mostly cloudy
Mostly cloudy
 Wind from W
Wind: W 9 mph , 15 km/h
Temperature: 12°C
Dew Point: 1°C
Humidity: 47%
Barometer: 1015 hPa
Clouds: Mostly cloudy
Visibility: 6 miles , 10 km
Cloud details: Few Clouds 1372 m
Mostly cloudy 6401 m
2018/04/26 17:50 EGVN 261750Z 26008KT 9999 FEW045 BKN210 12/01 Q1015 NOSIG
EGLC - London City Airport, United Kingdom
Distance from station: NE 71mi, 115km
Updated: 26-Apr-2018 19:20:00
Clear
Clear
 Wind from SW
Wind: SW 15 mph , 24 km/h
Temperature: 13°C
Dew Point: 5°C
Humidity: 59%
Barometer: 1015 hPa
Clouds: Clear
Visibility: 6 miles , 10 km
2018/04/26 18:20 EGLC 261820Z AUTO 23013KT 190V260 9999 NCD 13/05 Q1015
EGGD - Bristol Airport, United Kingdom
Distance from station: WNW 80mi, 128km
Updated: 26-Apr-2018 19:20:00
Clear
Clear
 Wind from W
Wind: W 13 mph , 20 km/h
Temperature: 8°C
Wind Chill: 4°C
Dew Point: 4°C
Humidity: 76%
Barometer: 1015 hPa
Clouds: Clear
Visibility: 6 miles , 10 km
2018/04/26 18:20 EGGD 261820Z AUTO 28011KT 9999 NCD 08/04 Q1015
 
LFRC - Cherbourg-Maupertus Airport, France
Distance from station: S 81mi, 130km
Updated: 26-Apr-2018 19:30:00
Mostly cloudy
Mostly cloudy
 Wind from W
Wind: W 6 mph , 9 km/h
Temperature: 10°C
Wind Chill: 9°C
Dew Point: 5°C
Humidity: 71%
Barometer: 1017 hPa
Clouds: Mostly cloudy
Visibility: 6 miles , 10 km
Cloud details: Few Clouds 792 m
Partly cloudy 5486 m
Mostly cloudy 6401 m
2018/04/26 18:30 LFRC 261830Z AUTO 27005KT 9999 FEW026 SCT180 BKN210 10/05 Q1017
EGGW - Luton Airport, United Kingdom
Distance from station: NNE 82mi, 132km
Updated: 26-Apr-2018 19:20:00
Clear
Clear
 Wind from WSW
Wind: WSW 13 mph , 20 km/h
Temperature: 11°C
Dew Point: 1°C
Humidity: 50%
Barometer: 1014 hPa
Clouds: Clear
Visibility: 6 miles , 10 km
2018/04/26 18:20 EGGW 261820Z AUTO 25011KT 9999 NCD 11/01 Q1014